CheckWX is a tool to help pilots better visualize weather data.  It is not intended as a substitute for an official pre-flight weather briefing.

22:33:01 UTC

KMIA TAF
Miami International Airport
Miami, Florida, USA
KMIA 222101Z 2221/2324 12010KT P6SM SCT040 FM230100 09006KT P6SM FEW030 FM230300 VRB04KT P6SM FEW040 FM231400 12008KT P6SM SCT040

Nov-22@
21:00 UTC

Nov-22 @ 21:00 UTC

Nov-23@
01:00 UTC

Nov-23 @ 01:00 UTC

KMIA 222101Z 2221/2324 12010KT P6SM SCT040
Wind
  • 120° at 10 KTS
Cloud Levels
  • Scattered at 4,000' AGL

Nov-23@
01:00 UTC

Nov-23 @ 01:00 UTC

Nov-23@
03:00 UTC

Nov-23 @ 03:00 UTC

FM230100 09006KT P6SM FEW030

From

From Standard forecast or significant change

Wind
  • 090° at 6 KTS
Cloud Levels
  • Few at 3,000' AGL

Nov-23@
03:00 UTC

Nov-23 @ 03:00 UTC

Nov-23@
14:00 UTC

Nov-23 @ 14:00 UTC

FM230300 VRB04KT P6SM FEW040

From

From Standard forecast or significant change

Wind
  • Variable at 4 KTS
Cloud Levels
  • Few at 4,000' AGL

Nov-23@
14:00 UTC

Nov-23 @ 14:00 UTC

Nov-24@
00:00 UTC

Nov-24 @ 00:00 UTC

FM231400 12008KT P6SM SCT040

From

From Standard forecast or significant change

Wind
  • 120° at 8 KTS
Cloud Levels
  • Scattered at 4,000' AGL